Time;durP1;ratioP1;P1;durP2;ratioP2;P2;SDS_P1;SDS_P2;PMS_P1;PMS_P2;Temp;Humidity;BMP_temperature;BMP_pressure;BME280_temperature;BME280_humidity;BME280_pressure;Samples;Min_cycle;Max_cycle;Signal;HPM_P1;HPM_P2
2023/04/25 00:02:10;;;;;;;10.90;9.80;;;;;;;10.10;92.96;95500.77;109125;1273;22527;-83
2023/04/25 00:04:40;;;;;;;11.60;9.80;;;;;;;10.09;93.25;95500.95;109118;1270;22461;-83
2023/04/25 00:07:12;;;;;;;11.10;9.50;;;;;;;10.07;93.48;95496.19;109092;1273;22524;-83
2023/04/25 00:09:43;;;;;;;9.30;7.60;;;;;;;10.09;93.61;95496.09;109103;1273;23857;-83
2023/04/25 00:12:15;;;;;;;12.90;11.70;;;;;;;10.06;94.21;95492.72;109125;1272;25414;-83
2023/04/25 00:14:46;;;;;;;11.30;10.20;;;;;;;10.07;94.14;95493.69;109125;1269;22537;-82
2023/04/25 00:17:18;;;;;;;13.70;12.40;;;;;;;10.10;94.03;95490.33;109082;1251;22515;-83
2023/04/25 00:19:49;;;;;;;12.60;11.30;;;;;;;10.10;94.27;95490.40;109115;1266;22508;-82
2023/04/25 00:22:20;;;;;;;8.70;7.50;;;;;;;10.05;94.38;95491.47;109089;1250;25252;-83
2023/04/25 00:24:53;;;;;;;8.40;7.10;;;;;;;10.03;94.73;95494.27;109101;1273;22455;-82
2023/04/25 00:27:23;;;;;;;7.30;6.20;;;;;;;10.02;94.70;95493.60;109073;1269;22512;-83
2023/04/25 00:29:54;;;;;;;6.70;5.30;;;;;;;10.01;94.92;95496.49;109141;1273;22529;-82
2023/04/25 00:32:25;;;;;;;3.70;2.40;;;;;;;9.99;95.55;95501.95;109109;1266;22518;-82
2023/04/25 00:34:57;;;;;;;4.80;1.70;;;;;;;9.82;96.44;95509.40;109101;1273;22511;-82
2023/04/25 00:37:31;;;;;;;2.20;2.00;;;;;;;9.63;96.03;95511.61;109129;1267;22546;-82
2023/04/25 00:40:02;;;;;;;1.90;1.70;;;;;;;9.51;95.89;95508.48;109143;1273;22544;-82
2023/04/25 00:42:33;;;;;;;2.20;1.80;;;;;;;9.44;96.35;95510.48;109101;1273;23838;-82
2023/04/25 00:45:09;;;;;;;2.40;1.70;;;;;;;9.38;96.51;95513.89;109128;1273;23781;-82
2023/04/25 00:47:40;;;;;;;1.90;1.70;;;;;;;9.32;96.82;95508.93;109161;1269;22484;-82
2023/04/25 00:50:12;;;;;;;2.10;1.90;;;;;;;9.27;97.07;95507.06;109122;1273;22556;-82
2023/04/25 00:52:45;;;;;;;2.80;1.80;;;;;;;9.23;97.36;95509.96;109105;1273;22540;-82
2023/04/25 00:55:16;;;;;;;1.90;1.40;;;;;;;9.20;97.45;95509.13;109143;1273;22527;-83
2023/04/25 00:57:47;;;;;;;1.70;1.20;;;;;;;9.19;97.55;95508.89;109098;1273;22533;-82
2023/04/25 01:00:20;;;;;;;3.00;1.70;;;;;;;9.16;97.54;95515.41;109095;1273;22623;-82
2023/04/25 01:02:52;;;;;;;2.50;1.70;;;;;;;9.16;97.67;95505.13;109121;1273;23452;-82
2023/04/25 01:05:23;;;;;;;1.80;1.70;;;;;;;9.14;97.99;95507.34;109080;1273;22714;-82
2023/04/25 01:07:54;;;;;;;2.20;2.00;;;;;;;9.12;98.29;95507.13;109083;1273;22548;-82
2023/04/25 01:10:25;;;;;;;2.80;2.30;;;;;;;9.10;98.96;95509.54;109091;1273;22529;-82
2023/04/25 01:12:56;;;;;;;3.40;2.00;;;;;;;9.08;99.27;95508.52;109122;1267;22937;-81
2023/04/25 01:15:29;;;;;;;3.00;2.20;;;;;;;9.06;99.18;95510.22;109090;1273;22554;-82
2023/04/25 01:18:01;;;;;;;2.90;2.40;;;;;;;9.03;99.56;95511.42;109123;1273;22567;-82
2023/04/25 01:20:34;;;;;;;2.40;2.20;;;;;;;9.02;99.92;95503.69;109106;1273;22544;-81
2023/04/25 01:23:05;;;;;;;5.20;2.10;;;;;;;9.00;100.00;95511.31;109123;1269;22556;-81
2023/04/25 01:25:37;;;;;;;3.20;2.70;;;;;;;8.97;100.00;95509.95;109159;1273;22544;-81
2023/04/25 01:28:08;;;;;;;3.00;2.60;;;;;;;8.93;100.00;95514.15;109065;1273;22562;-82
2023/04/25 01:30:40;;;;;;;2.80;2.50;;;;;;;8.91;100.00;95517.46;109111;1273;22530;-81
2023/04/25 01:33:12;;;;;;;2.70;2.40;;;;;;;8.90;100.00;95515.55;109122;1273;24222;-82
2023/04/25 01:35:43;;;;;;;3.20;2.60;;;;;;;8.89;100.00;95511.13;109125;1266;24160;-81
2023/04/25 01:38:16;;;;;;;3.60;2.90;;;;;;;8.89;100.00;95515.88;109097;1272;22573;-82
2023/04/25 01:40:50;;;;;;;2.50;2.20;;;;;;;8.90;100.00;95516.60;109112;1266;22653;-81
2023/04/25 01:43:21;;;;;;;3.80;2.00;;;;;;;8.90;100.00;95512.91;109128;1273;22515;-81
2023/04/25 01:45:52;;;;;;;4.30;3.10;;;;;;;8.87;100.00;95515.65;109094;1273;22479;-81
2023/04/25 01:48:23;;;;;;;3.60;2.70;;;;;;;8.89;100.00;95512.94;109104;1273;25401;-82
2023/04/25 01:50:54;;;;;;;3.50;2.30;;;;;;;8.87;100.00;95507.52;109096;1273;22568;-81
2023/04/25 01:53:25;;;;;;;3.20;2.70;;;;;;;8.84;100.00;95510.19;109132;1273;25443;-82
2023/04/25 01:55:56;;;;;;;3.90;3.20;;;;;;;8.83;100.00;95516.56;109080;1271;23194;-82
2023/04/25 01:58:27;;;;;;;3.40;3.10;;;;;;;8.82;100.00;95513.30;109123;1262;22561;-82
2023/04/25 02:00:58;;;;;;;3.90;3.10;;;;;;;8.83;100.00;95515.61;109131;1273;22603;-82
2023/04/25 02:03:30;;;;;;;3.70;2.90;;;;;;;8.84;100.00;95515.05;109108;1264;22556;-82
2023/04/25 02:06:00;;;;;;;4.90;2.70;;;;;;;8.82;100.00;95517.21;109097;1273;22830;-82
2023/04/25 02:08:31;;;;;;;3.50;2.80;;;;;;;8.80;100.00;95517.20;109107;1273;24209;-82
2023/04/25 02:11:03;;;;;;;3.80;2.30;;;;;;;8.79;100.00;95514.58;109152;1266;22537;-82
2023/04/25 02:13:34;;;;;;;2.80;2.40;;;;;;;8.76;100.00;95520.77;109106;1273;22563;-82
2023/04/25 02:16:05;;;;;;;4.00;3.60;;;;;;;8.75;100.00;95522.59;109113;1268;22528;-82
2023/04/25 02:18:37;;;;;;;5.60;3.80;;;;;;;8.74;100.00;95520.19;109066;1273;22559;-82
2023/04/25 02:21:08;;;;;;;3.60;3.30;;;;;;;8.71;100.00;95525.83;109114;1269;22529;-82
2023/04/25 02:23:39;;;;;;;4.00;3.50;;;;;;;8.71;100.00;95527.20;109139;1273;22526;-82
2023/04/25 02:26:11;;;;;;;6.80;3.90;;;;;;;8.72;100.00;95521.00;109112;1272;24201;-82
2023/04/25 02:28:41;;;;;;;4.30;3.90;;;;;;;8.71;100.00;95528.46;109107;1273;22569;-82
2023/04/25 02:31:12;;;;;;;4.10;3.40;;;;;;;8.71;100.00;95512.14;109103;1266;22662;-82
2023/04/25 02:33:44;;;;;;;4.10;3.60;;;;;;;8.69;100.00;95528.34;109108;1272;22536;-82
2023/04/25 02:36:14;;;;;;;4.20;3.80;;;;;;;8.69;100.00;95528.55;109116;1273;22512;-81
2023/04/25 02:38:45;;;;;;;4.60;4.10;;;;;;;8.68;100.00;95525.62;109085;1273;22517;-81
2023/04/25 02:41:16;;;;;;;5.30;4.10;;;;;;;8.66;100.00;95525.82;109127;1272;22521;-82
2023/04/25 02:43:47;;;;;;;4.80;3.90;;;;;;;8.62;100.00;95532.19;109154;1273;22542;-81
2023/04/25 02:46:18;;;;;;;6.30;4.30;;;;;;;8.58;100.00;95517.60;109128;1273;22515;-81
2023/04/25 02:48:49;;;;;;;5.80;3.90;;;;;;;8.55;100.00;95530.55;109078;1272;22503;-81
2023/04/25 02:51:20;;;;;;;6.00;5.00;;;;;;;8.50;100.00;95524.68;109085;1271;22508;-82
2023/04/25 02:53:50;;;;;;;6.20;4.80;;;;;;;8.47;100.00;95528.17;109096;1274;22556;-82
2023/04/25 02:56:21;;;;;;;5.90;4.80;;;;;;;8.48;100.00;95528.58;109096;1270;22549;-82
2023/04/25 02:58:52;;;;;;;5.00;4.20;;;;;;;8.48;100.00;95532.23;109030;1272;22517;-82
2023/04/25 03:01:23;;;;;;;5.80;4.80;;;;;;;8.48;100.00;95524.77;109118;1272;22555;-82
2023/04/25 03:03:54;;;;;;;6.70;5.10;;;;;;;8.47;100.00;95525.53;109108;1274;25339;-82
2023/04/25 03:06:25;;;;;;;6.20;5.00;;;;;;;8.52;100.00;95527.14;109027;1274;24162;-82
2023/04/25 03:08:56;;;;;;;5.60;5.00;;;;;;;8.55;100.00;95532.30;109062;1274;22617;-83
2023/04/25 03:11:28;;;;;;;6.40;5.40;;;;;;;8.59;100.00;95524.48;109063;1274;22469;-82
2023/04/25 03:13:59;;;;;;;5.40;4.60;;;;;;;8.58;100.00;95527.75;109070;1274;22537;-82
2023/04/25 03:16:31;;;;;;;7.40;5.70;;;;;;;8.58;100.00;95530.65;108991;1272;22522;-82
2023/04/25 03:19:02;;;;;;;6.80;4.80;;;;;;;8.55;100.00;95535.84;109012;1275;22533;-82
2023/04/25 03:21:34;;;;;;;6.90;5.50;;;;;;;8.53;100.00;95531.80;109026;1274;23817;-82
2023/04/25 03:24:06;;;;;;;6.30;4.90;;;;;;;8.54;100.00;95532.75;109028;1274;22512;-83
2023/04/25 03:26:37;;;;;;;5.10;4.60;;;;;;;8.50;100.00;95538.30;109050;1270;23266;-83
2023/04/25 03:29:08;;;;;;;6.90;6.10;;;;;;;8.50;100.00;95539.67;109079;1273;22529;-83
2023/04/25 03:31:39;;;;;;;7.30;6.10;;;;;;;8.49;100.00;95541.70;109126;1273;22517;-82
2023/04/25 03:34:09;;;;;;;5.10;4.00;;;;;;;8.51;100.00;95536.91;109113;1273;22518;-82
2023/04/25 03:36:40;;;;;;;5.70;4.80;;;;;;;8.50;100.00;95539.73;109045;1273;22574;-83
2023/04/25 03:39:11;;;;;;;5.00;4.40;;;;;;;8.49;100.00;95541.55;109058;1274;22457;-83
2023/04/25 03:41:42;;;;;;;5.30;4.70;;;;;;;8.51;100.00;95540.67;109025;1251;25240;-82
2023/04/25 03:44:13;;;;;;;5.20;4.80;;;;;;;8.51;100.00;95536.13;109029;1274;23703;-82
2023/04/25 03:46:44;;;;;;;4.50;4.00;;;;;;;8.51;100.00;95540.02;109045;1274;22539;-82
2023/04/25 03:49:15;;;;;;;3.80;3.40;;;;;;;8.51;100.00;95543.30;109073;1272;23769;-83
2023/04/25 03:51:46;;;;;;;4.80;4.30;;;;;;;8.49;100.00;95548.79;109068;1274;22596;-82
2023/04/25 03:54:17;;;;;;;5.30;4.60;;;;;;;8.48;100.00;95551.17;109073;1272;22595;-83
2023/04/25 03:56:48;;;;;;;5.00;4.50;;;;;;;8.47;100.00;95554.48;109040;1274;22508;-82
2023/04/25 03:59:19;;;;;;;5.30;3.20;;;;;;;8.44;100.00;95552.73;109079;1275;23747;-82
2023/04/25 04:01:50;;;;;;;4.40;3.50;;;;;;;8.41;100.00;95551.61;109081;1267;22684;-81
2023/04/25 04:04:21;;;;;;;5.00;4.50;;;;;;;8.35;100.00;95556.20;109035;1267;22554;-82
2023/04/25 04:06:52;;;;;;;5.30;4.00;;;;;;;8.30;100.00;95550.77;109013;1275;24283;-81
2023/04/25 04:09:23;;;;;;;6.30;4.90;;;;;;;8.23;100.00;95569.18;109038;1274;23628;-82
2023/04/25 04:11:53;;;;;;;6.20;5.50;;;;;;;8.19;100.00;95558.87;109080;1274;22549;-81
2023/04/25 04:14:24;;;;;;;6.00;5.20;;;;;;;8.13;100.00;95576.10;109037;1275;25290;-82
2023/04/25 04:16:55;;;;;;;7.90;5.90;;;;;;;8.15;100.00;95568.57;109026;1275;24257;-82
2023/04/25 04:19:26;;;;;;;5.80;5.10;;;;;;;8.10;100.00;95575.99;109031;1274;22523;-82
2023/04/25 04:21:57;;;;;;;7.90;6.00;;;;;;;8.06;100.00;95572.68;109077;1253;22655;-82
2023/04/25 04:24:28;;;;;;;4.70;3.40;;;;;;;8.04;100.00;95573.61;109049;1253;22517;-82
2023/04/25 04:26:59;;;;;;;6.10;4.60;;;;;;;8.00;100.00;95581.57;109083;1275;23759;-82
2023/04/25 04:29:31;;;;;;;5.90;4.60;;;;;;;7.99;100.00;95590.82;109060;1275;24013;-82
2023/04/25 04:32:04;;;;;;;5.20;4.70;;;;;;;7.98;99.92;95592.84;109031;1274;23263;-82
2023/04/25 04:34:37;;;;;;;4.70;4.00;;;;;;;7.96;99.60;95595.83;109029;1273;23089;-82
2023/04/25 04:37:12;;;;;;;6.80;5.00;;;;;;;7.93;99.24;95594.98;109011;1270;22519;-82
2023/04/25 04:39:45;;;;;;;6.00;3.50;;;;;;;7.90;98.84;95605.69;109070;1267;22517;-82
2023/04/25 04:42:17;;;;;;;5.10;3.90;;;;;;;7.87;98.83;95596.48;109078;1272;22600;-82
2023/04/25 04:44:48;;;;;;;5.70;4.70;;;;;;;7.82;98.45;95602.46;109038;1275;24236;-82
2023/04/25 04:47:20;;;;;;;5.10;4.40;;;;;;;7.77;98.34;95598.64;109069;1267;22563;-82
2023/04/25 04:49:52;;;;;;;4.90;3.60;;;;;;;7.73;97.49;95604.54;109067;1274;23918;-82
2023/04/25 04:52:23;;;;;;;8.30;3.90;;;;;;;7.68;97.49;95602.54;109067;1264;22643;-81
2023/04/25 04:54:55;;;;;;;7.10;5.50;;;;;;;7.64;97.49;95614.17;109055;1274;25427;-81
2023/04/25 04:57:26;;;;;;;5.20;4.70;;;;;;;7.65;97.49;95616.36;109025;1274;22531;-82
2023/04/25 05:00:00;;;;;;;5.90;4.40;;;;;;;7.64;97.46;95607.93;109035;1275;23601;-82
2023/04/25 05:02:32;;;;;;;5.40;4.50;;;;;;;7.63;97.55;95612.39;109061;1275;23095;-82
2023/04/25 05:05:04;;;;;;;7.00;4.80;;;;;;;7.63;97.65;95610.70;109054;1265;22537;-82
2023/04/25 05:07:35;;;;;;;5.30;4.40;;;;;;;7.61;97.71;95614.20;109106;1274;25410;-82
2023/04/25 05:10:09;;;;;;;6.00;5.00;;;;;;;7.58;98.00;95612.84;109072;1274;25436;-82
2023/04/25 05:12:40;;;;;;;4.60;4.20;;;;;;;7.57;98.29;95609.59;109064;1251;22527;-82
2023/04/25 05:15:13;;;;;;;5.80;5.20;;;;;;;7.56;98.49;95612.77;109077;1275;22543;-82
2023/04/25 05:17:44;;;;;;;4.80;3.80;;;;;;;7.56;98.64;95614.73;109039;1273;24178;-82
2023/04/25 05:20:18;;;;;;;6.60;5.10;;;;;;;7.58;98.52;95617.34;109059;1275;23821;-82
2023/04/25 05:22:50;;;;;;;6.90;6.20;;;;;;;7.59;98.82;95612.20;109097;1274;26703;-82
2023/04/25 05:25:22;;;;;;;6.70;6.00;;;;;;;7.59;98.89;95612.63;109069;1275;23364;-82
2023/04/25 05:27:54;;;;;;;8.30;6.70;;;;;;;7.59;98.84;95613.00;109054;1275;25331;-82
2023/04/25 05:30:26;;;;;;;7.30;6.60;;;;;;;7.60;99.14;95619.27;109127;1273;22500;-82
2023/04/25 05:32:58;;;;;;;8.90;7.60;;;;;;;7.58;99.40;95617.06;108840;1275;22523;-82
2023/04/25 05:35:31;;;;;;;7.70;6.00;;;;;;;7.57;99.42;95615.08;109091;1267;22573;-82
2023/04/25 05:38:05;;;;;;;9.10;7.00;;;;;;;7.56;99.63;95615.25;109054;1274;25205;-82
2023/04/25 05:40:37;;;;;;;10.50;9.40;;;;;;;7.53;99.87;95625.00;109039;1267;23001;-82
2023/04/25 05:43:08;;;;;;;9.70;8.50;;;;;;;7.52;99.68;95622.90;109107;1273;23846;-82
2023/04/25 05:45:40;;;;;;;10.30;8.50;;;;;;;7.54;99.41;95630.63;109039;1275;22572;-82
2023/04/25 05:48:12;;;;;;;8.90;7.70;;;;;;;7.54;99.26;95633.37;109128;1273;23657;-82
2023/04/25 05:50:43;;;;;;;8.80;7.90;;;;;;;7.50;99.47;95634.79;109130;1267;25480;-82
2023/04/25 05:53:14;;;;;;;8.30;7.10;;;;;;;7.45;99.22;95638.16;109154;1273;22663;-82
2023/04/25 05:55:45;;;;;;;8.30;7.00;;;;;;;7.45;99.21;95641.80;109137;1273;25481;-82
2023/04/25 05:58:17;;;;;;;7.20;5.30;;;;;;;7.45;98.80;95642.43;109050;1275;22523;-82
2023/04/25 06:00:49;;;;;;;7.30;6.50;;;;;;;7.40;98.06;95646.51;109015;1274;23220;-82
2023/04/25 06:03:21;;;;;;;6.70;5.80;;;;;;;7.43;97.94;95648.73;109048;1275;22517;-82
2023/04/25 06:05:52;;;;;;;4.70;3.60;;;;;;;7.42;97.03;95642.69;109010;1275;22626;-82
2023/04/25 06:08:24;;;;;;;6.10;5.50;;;;;;;7.34;96.88;95647.69;109030;1251;22519;-82
2023/04/25 06:10:55;;;;;;;6.70;5.20;;;;;;;7.29;97.00;95642.84;109026;1273;25591;-82
2023/04/25 06:13:27;;;;;;;6.10;5.30;;;;;;;7.26;97.37;95652.67;109042;1274;22636;-82
2023/04/25 06:15:59;;;;;;;6.80;5.80;;;;;;;7.28;97.22;95654.23;109052;1274;22537;-82
2023/04/25 06:18:31;;;;;;;8.10;6.40;;;;;;;7.33;97.32;95651.12;109020;1271;24366;-82
2023/04/25 06:21:02;;;;;;;5.10;4.40;;;;;;;7.37;97.03;95659.14;109065;1275;25320;-83
2023/04/25 06:23:33;;;;;;;6.70;5.60;;;;;;;7.41;96.72;95662.31;109077;1275;24424;-83
2023/04/25 06:26:04;;;;;;;6.30;5.60;;;;;;;7.39;96.28;95664.23;109008;1275;22560;-82
2023/04/25 06:28:35;;;;;;;7.00;4.90;;;;;;;7.35;96.07;95662.34;109039;1274;22591;-82
2023/04/25 06:31:07;;;;;;;6.40;4.80;;;;;;;7.30;96.01;95670.50;109051;1275;23190;-82
2023/04/25 06:33:38;;;;;;;5.90;5.20;;;;;;;7.26;95.88;95669.70;109043;1274;22545;-82
2023/04/25 06:36:09;;;;;;;4.60;4.00;;;;;;;7.23;95.97;95669.21;109086;1275;23770;-82
2023/04/25 06:38:41;;;;;;;7.20;5.90;;;;;;;7.15;96.19;95661.86;109053;1274;24892;-82
2023/04/25 06:41:12;;;;;;;5.30;4.00;;;;;;;7.10;96.14;95663.69;108993;1274;22674;-82
2023/04/25 06:43:43;;;;;;;5.90;5.00;;;;;;;7.09;96.05;95661.39;109072;1275;23739;-82
2023/04/25 06:46:14;;;;;;;5.10;4.60;;;;;;;7.12;96.53;95669.89;109078;1275;22529;-82
2023/04/25 06:48:45;;;;;;;4.70;3.90;;;;;;;7.20;96.18;95667.56;109005;1274;24035;-82
2023/04/25 06:51:17;;;;;;;4.70;4.20;;;;;;;7.22;95.78;95661.58;109025;1274;24229;-82
2023/04/25 06:53:48;;;;;;;4.50;4.00;;;;;;;7.15;94.86;95667.70;109067;1267;24250;-82
2023/04/25 06:56:21;;;;;;;4.80;3.70;;;;;;;7.17;95.18;95667.98;109087;1267;25333;-82
2023/04/25 06:58:52;;;;;;;3.70;3.10;;;;;;;7.14;95.03;95672.23;109073;1267;24181;-82
2023/04/25 07:01:23;;;;;;;4.20;2.90;;;;;;;7.14;94.85;95669.34;109031;1269;24293;-82
2023/04/25 07:03:54;;;;;;;3.00;2.70;;;;;;;7.12;94.31;95676.06;109039;1274;24957;-82
2023/04/25 07:06:27;;;;;;;3.10;2.40;;;;;;;7.10;94.40;95674.34;109031;1274;22517;-82
2023/04/25 07:08:58;;;;;;;2.70;2.40;;;;;;;7.09;94.12;95679.15;109099;1270;22518;-82
2023/04/25 07:11:29;;;;;;;2.50;1.80;;;;;;;7.10;93.40;95670.86;109063;1251;23040;-82
2023/04/25 07:14:00;;;;;;;2.90;2.40;;;;;;;7.06;92.58;95673.13;109003;1274;22523;-82
2023/04/25 07:16:32;;;;;;;2.70;2.40;;;;;;;7.04;92.77;95680.36;109022;1267;22714;-82
2023/04/25 07:19:03;;;;;;;3.00;2.70;;;;;;;7.05;93.00;95677.20;109046;1274;22519;-82
2023/04/25 07:21:36;;;;;;;3.20;2.00;;;;;;;7.08;92.81;95676.22;109101;1274;22653;-82
2023/04/25 07:24:08;;;;;;;2.70;2.40;;;;;;;7.11;92.79;95679.28;109028;1274;22543;-82
2023/04/25 07:26:38;;;;;;;3.60;3.10;;;;;;;7.19;92.68;95673.58;109082;1272;23512;-82
2023/04/25 07:29:10;;;;;;;3.60;3.10;;;;;;;7.26;92.35;95676.35;109064;1274;22612;-82
2023/04/25 07:31:41;;;;;;;3.20;2.90;;;;;;;7.37;92.14;95675.49;109091;1251;22601;-82
2023/04/25 07:34:12;;;;;;;3.90;3.50;;;;;;;7.52;92.03;95678.13;109012;1274;22550;-82
2023/04/25 07:36:44;;;;;;;5.40;3.60;;;;;;;7.53;91.83;95677.48;109013;1272;24014;-82
2023/04/25 07:39:16;;;;;;;4.60;4.00;;;;;;;7.45;91.45;95676.83;109018;1274;22546;-82
2023/04/25 07:41:47;;;;;;;4.50;3.10;;;;;;;7.35;91.14;95675.84;109081;1274;23761;-82
2023/04/25 07:44:18;;;;;;;3.90;2.90;;;;;;;7.29;91.38;95678.63;109046;1272;24211;-82
2023/04/25 07:46:49;;;;;;;5.80;3.80;;;;;;;7.28;91.40;95672.79;109045;1267;22522;-82
2023/04/25 07:49:20;;;;;;;3.00;2.60;;;;;;;7.29;91.42;95686.91;109115;1274;22547;-82
2023/04/25 07:51:51;;;;;;;3.90;3.20;;;;;;;7.34;91.39;95682.81;109045;1274;22633;-83
2023/04/25 07:54:23;;;;;;;3.70;3.00;;;;;;;7.44;91.46;95681.80;109043;1274;22567;-82
2023/04/25 07:56:54;;;;;;;4.10;3.00;;;;;;;7.50;90.76;95685.55;109044;1274;22522;-83
2023/04/25 07:59:25;;;;;;;6.20;4.20;;;;;;;7.47;90.31;95682.15;109056;1274;25422;-82
2023/04/25 08:01:57;;;;;;;5.80;4.50;;;;;;;7.48;90.57;95678.86;109046;1274;22515;-82
2023/04/25 08:04:31;;;;;;;6.00;4.20;;;;;;;7.53;91.04;95685.91;109062;1267;22517;-82
2023/04/25 08:07:02;;;;;;;6.30;4.40;;;;;;;7.68;91.36;95681.16;109115;1268;24513;-82
2023/04/25 08:09:35;;;;;;;6.60;4.20;;;;;;;7.78;90.68;95680.73;109109;1273;22660;-82
2023/04/25 08:12:07;;;;;;;4.60;4.10;;;;;;;7.82;90.62;95679.20;109096;1273;22550;-82
2023/04/25 08:14:39;;;;;;;5.30;4.50;;;;;;;7.98;90.98;95679.11;109120;1273;22530;-82
2023/04/25 08:17:10;;;;;;;5.00;3.70;;;;;;;8.21;90.00;95678.32;109021;1273;22773;-83
2023/04/25 08:19:41;;;;;;;5.60;4.30;;;;;;;8.32;89.62;95672.74;109050;1267;22550;-83
2023/04/25 08:22:12;;;;;;;5.30;3.90;;;;;;;8.21;88.91;95675.98;109089;1269;23852;-82
2023/04/25 08:24:43;;;;;;;6.40;4.80;;;;;;;8.05;88.83;95677.69;109028;1274;24016;-82
2023/04/25 08:27:15;;;;;;;5.50;4.40;;;;;;;8.06;89.12;95684.44;109033;1269;22553;-82
2023/04/25 08:29:46;;;;;;;5.20;4.20;;;;;;;8.15;89.10;95679.55;109075;1274;22635;-83
2023/04/25 08:32:17;;;;;;;5.10;4.00;;;;;;;8.17;88.54;95681.49;109020;1272;22562;-82
2023/04/25 08:34:48;;;;;;;5.10;3.90;;;;;;;8.05;87.92;95679.70;109075;1274;22563;-82
2023/04/25 08:37:19;;;;;;;5.90;3.90;;;;;;;7.84;87.52;95687.52;109067;1274;24212;-82
2023/04/25 08:39:52;;;;;;;5.50;4.60;;;;;;;7.69;87.93;95689.69;109040;1271;23246;-82
2023/04/25 08:42:25;;;;;;;4.30;3.40;;;;;;;7.69;88.14;95687.95;109047;1274;22834;-82
2023/04/25 08:44:57;;;;;;;6.10;4.30;;;;;;;7.66;87.85;95689.08;109039;1255;22916;-82
2023/04/25 08:47:30;;;;;;;5.70;4.50;;;;;;;7.58;87.88;95691.03;109034;1274;22626;-83
2023/04/25 08:50:03;;;;;;;6.80;5.40;;;;;;;7.50;87.95;95696.98;109055;1274;22537;-82
2023/04/25 08:52:42;;;;;;;6.40;5.00;;;;;;;7.40;87.76;95699.34;109067;1274;22538;-82
2023/04/25 08:55:15;;;;;;;5.50;4.60;;;;;;;7.36;88.09;95703.04;109067;1274;22641;-82
2023/04/25 08:57:46;;;;;;;5.40;4.80;;;;;;;7.36;88.32;95706.77;109030;1274;22583;-82
2023/04/25 09:00:19;;;;;;;6.30;5.00;;;;;;;7.36;88.44;95704.46;109072;1273;22591;-83
2023/04/25 09:02:51;;;;;;;5.90;4.80;;;;;;;7.34;88.66;95702.33;109072;1274;22560;-82
2023/04/25 09:05:22;;;;;;;5.50;4.40;;;;;;;7.32;88.23;95706.86;108993;1274;22556;-82
2023/04/25 09:07:53;;;;;;;4.60;4.00;;;;;;;7.34;88.06;95703.28;109028;1267;22536;-83
2023/04/25 09:10:25;;;;;;;5.80;4.30;;;;;;;7.37;88.05;95703.34;109084;1274;22791;-82
2023/04/25 09:13:11;;;;;;;5.20;4.30;;;;;;;7.44;88.23;95703.79;109066;1272;22563;-82
2023/04/25 09:15:53;;;;;;;6.50;4.90;;;;;;;7.45;88.07;95707.62;109157;1274;22835;-82
2023/04/25 09:18:28;;;;;;;7.80;5.40;;;;;;;7.56;88.27;95711.98;109008;1274;23872;-83
2023/04/25 09:21:06;;;;;;;5.80;4.90;;;;;;;7.61;88.04;95714.73;109063;1267;22557;-83
2023/04/25 09:23:45;;;;;;;5.10;4.40;;;;;;;7.69;87.78;95717.66;109069;1274;22663;-82
2023/04/25 09:26:19;;;;;;;5.30;4.10;;;;;;;7.66;87.37;95713.20;109014;1251;22479;-82
2023/04/25 09:29:04;;;;;;;5.00;4.00;;;;;;;7.67;86.62;95714.94;109078;1267;25415;-82
2023/04/25 09:31:36;;;;;;;5.90;4.00;;;;;;;7.69;86.91;95712.41;109037;1274;22834;-83
2023/04/25 09:34:10;;;;;;;5.80;4.80;;;;;;;7.70;86.52;95712.30;109061;1255;22560;-83
2023/04/25 09:36:41;;;;;;;7.60;4.70;;;;;;;7.67;85.75;95712.20;109042;1269;25393;-82
2023/04/25 09:39:16;;;;;;;6.40;5.10;;;;;;;7.73;86.06;95707.05;109012;1275;22607;-83
2023/04/25 09:41:47;;;;;;;6.50;4.60;;;;;;;7.79;85.83;95704.84;109053;1274;22667;-83
2023/04/25 09:44:26;;;;;;;7.60;5.20;;;;;;;7.82;85.40;95700.46;109031;1274;24372;-82
2023/04/25 09:46:58;;;;;;;7.80;5.00;;;;;;;7.78;85.08;95707.11;109045;1274;22530;-83
2023/04/25 09:49:30;;;;;;;6.80;5.20;;;;;;;7.70;85.03;95707.04;109064;1274;24274;-82
2023/04/25 09:52:01;;;;;;;5.90;5.30;;;;;;;7.65;85.11;95707.79;109031;1271;25360;-83
2023/04/25 09:54:33;;;;;;;7.00;5.00;;;;;;;7.67;85.29;95709.55;109063;1267;22986;-83
2023/04/25 09:57:13;;;;;;;8.90;5.90;;;;;;;7.66;85.14;95711.25;109004;1268;23710;-82
2023/04/25 09:59:48;;;;;;;4.50;4.00;;;;;;;7.76;85.46;95708.88;109057;1274;22586;-82
2023/04/25 10:02:21;;;;;;;6.20;4.90;;;;;;;7.86;85.22;95705.42;109071;1275;23389;-82
2023/04/25 10:04:54;;;;;;;6.20;4.70;;;;;;;7.88;85.11;95711.26;109045;1268;22481;-82
2023/04/25 10:07:29;;;;;;;5.10;4.30;;;;;;;7.93;85.30;95711.16;109026;1275;22555;-82
2023/04/25 10:10:04;;;;;;;4.70;3.40;;;;;;;8.02;84.39;95705.55;109060;1273;22526;-83
2023/04/25 10:12:35;;;;;;;3.50;3.10;;;;;;;8.04;83.80;95703.10;109050;1274;22554;-82
2023/04/25 10:15:08;;;;;;;4.40;3.60;;;;;;;8.13;83.89;95707.57;109067;1267;24205;-83
2023/04/25 10:17:40;;;;;;;4.10;3.70;;;;;;;8.31;83.66;95708.51;109038;1274;22838;-82
2023/04/25 10:20:12;;;;;;;4.00;3.20;;;;;;;8.45;83.09;95700.14;109077;1271;22609;-82
2023/04/25 10:22:46;;;;;;;5.30;3.60;;;;;;;8.41;82.18;95700.88;109080;1272;22990;-83
2023/04/25 10:25:18;;;;;;;4.40;3.10;;;;;;;8.46;82.82;95701.38;109072;1274;22639;-82
2023/04/25 10:27:51;;;;;;;5.30;4.00;;;;;;;8.59;82.73;95698.71;109066;1273;25234;-83
2023/04/25 10:30:22;;;;;;;3.80;3.40;;;;;;;8.86;83.27;95700.09;109084;1265;25453;-82
2023/04/25 10:32:55;;;;;;;3.20;2.80;;;;;;;9.07;81.60;95696.31;109103;1267;22455;-82
2023/04/25 10:35:30;;;;;;;3.10;2.40;;;;;;;9.16;80.67;95695.14;109196;1267;25325;-83
2023/04/25 10:38:04;;;;;;;4.40;2.80;;;;;;;9.33;80.62;95695.86;109015;1266;30194;-83
2023/04/25 10:40:35;;;;;;;3.40;2.40;;;;;;;9.47;79.65;95693.11;109058;1272;22657;-82
2023/04/25 10:43:37;;;;;;;3.70;2.80;;;;;;;9.54;79.15;95688.79;109059;1268;25451;-82
2023/04/25 10:46:23;;;;;;;3.50;3.00;;;;;;;9.35;77.30;95688.00;109071;1274;22504;-83
2023/04/25 10:48:55;;;;;;;4.20;2.40;;;;;;;9.18;76.53;95687.30;109103;1271;24223;-83
2023/04/25 10:51:28;;;;;;;4.50;2.50;;;;;;;9.03;75.87;95693.36;109136;1273;24298;-83
2023/04/25 10:54:03;;;;;;;2.70;2.10;;;;;;;9.00;75.47;95695.36;109054;1273;22657;-83
2023/04/25 10:56:39;;;;;;;4.00;2.70;;;;;;;9.06;75.03;95692.11;109103;1273;22626;-83
2023/04/25 10:59:12;;;;;;;4.10;3.00;;;;;;;8.93;73.09;95693.63;109111;1265;24927;-83
2023/04/25 11:01:44;;;;;;;4.00;2.60;;;;;;;9.07;75.34;95693.83;109126;1273;22718;-83
2023/04/25 11:04:29;;;;;;;2.80;2.50;;;;;;;9.32;74.74;95694.88;109136;1267;22680;-83
2023/04/25 11:07:19;;;;;;;4.20;2.80;;;;;;;9.21;73.69;95695.42;109095;1273;22532;-83
2023/04/25 11:09:52;;;;;;;4.80;2.80;;;;;;;9.15;74.26;95699.39;109125;1273;22517;-83
2023/04/25 11:12:25;;;;;;;4.10;3.30;;;;;;;9.13;73.90;95695.08;109121;1273;23532;-83
2023/04/25 11:15:03;;;;;;;3.80;2.90;;;;;;;9.07;74.36;95698.47;109178;1273;22510;-83
2023/04/25 11:17:35;;;;;;;4.50;3.70;;;;;;;8.87;73.95;95699.48;109074;1273;24340;-83
2023/04/25 11:20:11;;;;;;;5.70;3.80;;;;;;;8.79;74.94;95697.60;109092;1274;22570;-83
2023/04/25 11:22:44;;;;;;;4.50;3.70;;;;;;;8.79;75.23;95692.90;109096;1274;23909;-83
2023/04/25 11:25:18;;;;;;;5.20;3.70;;;;;;;8.68;75.46;95688.59;109017;1274;24161;-82
2023/04/25 11:27:57;;;;;;;4.50;3.70;;;;;;;8.88;76.37;95692.50;109054;1274;25448;-83
2023/04/25 11:30:30;;;;;;;4.50;3.40;;;;;;;9.07;75.79;95689.87;109026;1274;22534;-83
2023/04/25 11:33:03;;;;;;;7.80;3.90;;;;;;;9.20;75.57;95689.99;109042;1274;22575;-83
2023/04/25 11:35:34;;;;;;;4.10;3.40;;;;;;;9.35;75.71;95688.84;109074;1274;22595;-83
2023/04/25 11:38:06;;;;;;;5.30;4.00;;;;;;;9.37;75.32;95690.08;109020;1268;23280;-83
2023/04/25 11:40:38;;;;;;;9.80;8.80;;;;;;;9.24;75.12;95690.66;109090;1268;22822;-83
2023/04/25 11:43:10;;;;;;;11.20;9.50;;;;;;;9.22;75.33;95686.56;109081;1274;22521;-83
2023/04/25 11:45:41;;;;;;;5.70;3.50;;;;;;;9.14;74.89;95689.76;109077;1274;22534;-83
2023/04/25 11:48:12;;;;;;;5.10;4.40;;;;;;;9.08;75.50;95686.41;109046;1270;23071;-83
2023/04/25 11:50:44;;;;;;;10.60;9.50;;;;;;;9.00;75.08;95687.48;109055;1274;24244;-83
2023/04/25 11:53:15;;;;;;;5.90;4.60;;;;;;;8.83;75.70;95689.83;109099;1267;22542;-83
2023/04/25 11:55:46;;;;;;;7.10;6.20;;;;;;;8.74;75.89;95688.34;109072;1271;22525;-83